createdAt,value
2022-08-28T00:01:01.305Z,101283.41
2022-08-28T00:04:04.539Z,101293.38
2022-08-28T00:07:07.189Z,101286.41
2022-08-28T00:10:14.639Z,101284.31
2022-08-28T00:13:20.484Z,101296.19
2022-08-28T00:16:24.018Z,101288.34
2022-08-28T00:19:29.371Z,101288.50
2022-08-28T00:22:32.016Z,101295.81
2022-08-28T00:25:37.257Z,101291.28
2022-08-28T00:28:38.860Z,101289.31
2022-08-28T00:31:41.532Z,101288.50
2022-08-28T00:34:44.197Z,101292.53
2022-08-28T00:37:48.152Z,101294.34
2022-08-28T00:40:56.551Z,101297.28
2022-08-28T00:44:11.091Z,101301.72
2022-08-28T00:47:14.069Z,101301.53
2022-08-28T00:50:19.363Z,101294.66
2022-08-28T00:53:23.446Z,101291.03
2022-08-28T00:56:32.956Z,101299.38
2022-08-28T00:59:36.344Z,101300.19
2022-08-28T01:02:39.144Z,101294.91
2022-08-28T01:05:46.684Z,101285.28
2022-08-28T01:08:52.088Z,101292.69
2022-08-28T01:12:01.896Z,101291.88
2022-08-28T01:15:11.774Z,101287.78
2022-08-28T01:18:17.565Z,101288.28
2022-08-28T01:21:26.564Z,101292.09
2022-08-28T01:24:32.103Z,101300.91
2022-08-28T01:27:34.990Z,101295.47
2022-08-28T01:30:37.735Z,101301.16
2022-08-28T01:33:42.399Z,101294.72
2022-08-28T01:36:46.113Z,101302.66
2022-08-28T01:39:50.093Z,101299.19
2022-08-28T01:42:52.751Z,101295.16
2022-08-28T01:46:00.063Z,101302.66
2022-08-28T01:49:02.966Z,101302.91
2022-08-28T01:52:05.786Z,101301.72
2022-08-28T01:55:11.376Z,101309.38
2022-08-28T01:58:14.674Z,101309.09
2022-08-28T02:01:20.260Z,101307.75
2022-08-28T02:04:31.724Z,101302.50
2022-08-28T02:07:35.193Z,101306.72
2022-08-28T02:10:41.181Z,101308.06
2022-08-28T02:13:44.168Z,101306.41
2022-08-28T02:16:47.178Z,101311.44
2022-08-28T02:19:50.497Z,101306.63
2022-08-28T02:22:53.134Z,101308.75
2022-08-28T02:25:57.055Z,101310.63
2022-08-28T02:28:59.684Z,101302.81
2022-08-28T02:32:02.375Z,101306.19
2022-08-28T02:35:06.579Z,101303.38
2022-08-28T02:38:14.826Z,101303.31
2022-08-28T02:41:18.905Z,101300.72
2022-08-28T02:44:21.509Z,101308.19
2022-08-28T02:47:24.087Z,101300.34
2022-08-28T02:50:26.655Z,101306.94
2022-08-28T02:53:29.820Z,101297.78
2022-08-28T02:56:34.309Z,101304.53
2022-08-28T02:59:38.295Z,101303.50
2022-08-28T03:02:42.246Z,101302.03
2022-08-28T03:05:44.865Z,101302.72
2022-08-28T03:08:47.508Z,101306.50
2022-08-28T03:11:53.886Z,101312.34
2022-08-28T03:14:56.874Z,101312.00
2022-08-28T03:17:59.590Z,101308.38
2022-08-28T03:21:02.770Z,101319.63
2022-08-28T03:24:05.671Z,101313.94
2022-08-28T03:27:10.358Z,101311.56
2022-08-28T03:30:13.679Z,101312.41
2022-08-28T03:33:16.430Z,101311.72
2022-08-28T03:36:24.655Z,101309.09
2022-08-28T03:39:27.259Z,101303.31
2022-08-28T03:42:31.538Z,101307.03
2022-08-28T03:45:35.214Z,101314.81
2022-08-28T03:48:39.090Z,101311.72
2022-08-28T03:51:47.507Z,101314.63
2022-08-28T03:54:50.430Z,101307.13
2022-08-28T03:57:54.958Z,101307.41
2022-08-28T04:00:57.603Z,101311.19
2022-08-28T04:04:00.365Z,101307.56
2022-08-28T04:07:02.944Z,101311.91
2022-08-28T04:10:06.445Z,101304.47
2022-08-28T04:13:10.805Z,101312.41
2022-08-28T04:16:18.981Z,101306.28
2022-08-28T04:19:22.524Z,101318.03
2022-08-28T04:22:25.153Z,101317.41
2022-08-28T04:25:28.310Z,101316.41
2022-08-28T04:28:32.869Z,101312.91
2022-08-28T04:31:36.037Z,101311.53
2022-08-28T04:34:39.143Z,101319.69
2022-08-28T04:37:43.614Z,101311.66
2022-08-28T04:40:46.212Z,101318.72
2022-08-28T04:43:51.846Z,101319.84
2022-08-28T04:46:54.415Z,101324.84
2022-08-28T04:49:58.865Z,101328.72
2022-08-28T04:53:01.513Z,101324.59
2022-08-28T04:56:06.495Z,101325.56
2022-08-28T04:59:11.600Z,101326.41
2022-08-28T05:02:14.229Z,101329.19
2022-08-28T05:05:17.072Z,101323.22
2022-08-28T05:08:23.998Z,101326.84
2022-08-28T05:11:33.798Z,101337.28
2022-08-28T05:14:39.836Z,101330.41
2022-08-28T05:17:42.473Z,101337.81
2022-08-28T05:20:46.482Z,101332.78
2022-08-28T05:23:49.831Z,101340.91
2022-08-28T05:26:52.572Z,101350.78
2022-08-28T05:30:01.606Z,101340.41
2022-08-28T05:33:05.112Z,101344.72
2022-08-28T05:36:08.796Z,101345.91
2022-08-28T05:39:12.664Z,101350.69
2022-08-28T05:42:15.474Z,101348.19
2022-08-28T05:45:20.946Z,101357.94
2022-08-28T05:48:23.498Z,101347.50
2022-08-28T05:51:27.601Z,101351.28
2022-08-28T05:54:30.268Z,101348.16
2022-08-28T05:57:32.878Z,101347.31
2022-08-28T06:00:36.835Z,101350.84
2022-08-28T06:03:40.639Z,101352.63
2022-08-28T06:06:44.033Z,101352.78
2022-08-28T06:09:46.658Z,101356.19
2022-08-28T06:12:49.337Z,101361.34
2022-08-28T06:15:53.488Z,101361.72
2022-08-28T06:18:57.622Z,101365.25
2022-08-28T06:22:01.869Z,101377.22
2022-08-28T06:25:14.172Z,101370.56
2022-08-28T06:28:19.244Z,101369.78
2022-08-28T06:31:26.514Z,101371.81
2022-08-28T06:34:30.594Z,101369.22
2022-08-28T06:37:33.201Z,101372.53
2022-08-28T06:40:40.051Z,101376.25
2022-08-28T06:43:43.041Z,101381.38
2022-08-28T06:46:48.506Z,101380.47
2022-08-28T06:49:51.362Z,101391.41
2022-08-28T06:52:53.917Z,101379.53
2022-08-28T06:56:01.704Z,101388.59
2022-08-28T06:59:05.038Z,101382.53
2022-08-28T07:02:09.366Z,101395.19
2022-08-28T07:05:12.139Z,101391.81
2022-08-28T07:08:14.794Z,101398.50
2022-08-28T07:11:21.922Z,101391.53
2022-08-28T07:14:28.830Z,101394.72
2022-08-28T07:17:32.801Z,101395.31
2022-08-28T07:20:35.417Z,101396.44
2022-08-28T07:23:40.065Z,101396.00
2022-08-28T07:26:44.442Z,101396.94
2022-08-28T07:29:47.054Z,101406.47
2022-08-28T07:32:51.003Z,101401.06
2022-08-28T07:35:53.682Z,101408.72
2022-08-28T07:38:56.651Z,101404.75
2022-08-28T07:41:59.271Z,101408.88
2022-08-28T07:45:01.066Z,101405.75
2022-08-28T07:48:11.457Z,101401.50
2022-08-28T07:51:14.296Z,101412.03
2022-08-28T07:54:18.226Z,101414.31
2022-08-28T07:57:21.478Z,101411.38
2022-08-28T08:00:25.583Z,101413.69
2022-08-28T08:03:30.831Z,101415.81
2022-08-28T08:06:34.450Z,101421.53
2022-08-28T08:09:38.778Z,101415.69
2022-08-28T08:12:42.683Z,101420.19
2022-08-28T08:15:45.548Z,101422.16
2022-08-28T08:18:50.637Z,101419.06
2022-08-28T08:21:55.250Z,101422.50
2022-08-28T08:24:57.976Z,101429.34
2022-08-28T08:28:00.657Z,101427.75
2022-08-28T08:31:08.418Z,101428.69
2022-08-28T08:34:12.416Z,101429.81
2022-08-28T08:37:15.118Z,101423.78
2022-08-28T08:40:20.047Z,101425.75
2022-08-28T08:43:23.897Z,101429.31
2022-08-28T08:46:34.630Z,101424.81
2022-08-28T08:49:44.677Z,101431.59
2022-08-28T08:53:03.230Z,101422.88
2022-08-28T08:56:06.805Z,101427.41
2022-08-28T08:59:13.549Z,101432.66
2022-08-28T09:02:22.343Z,101425.69
2022-08-28T09:05:48.882Z,101434.63
2022-08-28T09:08:57.966Z,101433.91
2022-08-28T09:12:03.180Z,101428.09
2022-08-28T09:15:14.135Z,101426.56
2022-08-28T09:18:22.732Z,101433.75
2022-08-28T09:21:29.616Z,101422.75
2022-08-28T09:24:35.401Z,101421.19
2022-08-28T09:27:46.828Z,101421.34
2022-08-28T09:30:56.996Z,101417.13
2022-08-28T09:34:18.789Z,101413.75
2022-08-28T09:37:27.512Z,101423.59
2022-08-28T09:40:51.771Z,101427.56
2022-08-28T09:43:53.461Z,101422.34
2022-08-28T09:46:56.099Z,101422.38
2022-08-28T09:50:19.074Z,101427.00
2022-08-28T09:53:23.481Z,101425.09
2022-08-28T09:56:31.991Z,101426.97
2022-08-28T09:59:34.669Z,101428.97
2022-08-28T10:02:44.588Z,101430.91
2022-08-28T10:05:55.971Z,101425.41
2022-08-28T10:09:17.030Z,101417.72
2022-08-28T10:12:34.798Z,101406.09
2022-08-28T10:15:54.255Z,101422.94
2022-08-28T10:19:06.128Z,101411.63
2022-08-28T10:22:25.542Z,101424.88
2022-08-28T10:25:40.092Z,101420.56
2022-08-28T10:28:52.189Z,101418.25
2022-08-28T10:32:11.187Z,101424.88
2022-08-28T10:35:19.234Z,101440.81
2022-08-28T10:38:30.252Z,101430.13
2022-08-28T10:41:42.732Z,101424.09
2022-08-28T10:44:50.839Z,101438.34
2022-08-28T10:47:58.829Z,101436.28
2022-08-28T10:51:05.934Z,101433.13
2022-08-28T10:54:19.508Z,101426.59
2022-08-28T10:57:37.303Z,101438.56
2022-08-28T11:00:44.081Z,101444.63
2022-08-28T11:03:50.315Z,101447.22
2022-08-28T11:06:57.030Z,101449.16
2022-08-28T11:10:20.122Z,101449.59
2022-08-28T11:13:45.834Z,101451.25
2022-08-28T11:16:50.081Z,101463.97
2022-08-28T11:20:14.177Z,101464.22
2022-08-28T11:23:23.195Z,101462.91
2022-08-28T11:26:34.854Z,101466.16
2022-08-28T11:30:02.056Z,101465.41
2022-08-28T11:33:39.011Z,101475.28
2022-08-28T11:37:00.992Z,101476.00
2022-08-28T11:40:17.572Z,101475.13
2022-08-28T11:43:37.358Z,101466.56
2022-08-28T11:46:43.650Z,101472.00
2022-08-28T11:49:46.746Z,101471.09
2022-08-28T11:53:17.820Z,101470.84
2022-08-28T11:56:36.853Z,101456.34
2022-08-28T12:00:03.743Z,101454.97
2022-08-28T12:03:13.461Z,101463.34
2022-08-28T12:06:16.162Z,101460.28
2022-08-28T12:09:41.422Z,101463.53
2022-08-28T12:12:53.826Z,101460.38
2022-08-28T12:16:05.504Z,101444.59
2022-08-28T12:19:11.119Z,101451.81
2022-08-28T12:22:16.426Z,101449.16
2022-08-28T12:25:28.398Z,101451.34
2022-08-28T12:28:33.163Z,101457.28
2022-08-28T12:32:15.075Z,101455.22
2022-08-28T12:35:21.516Z,101460.72
2022-08-28T12:38:24.509Z,101459.72
2022-08-28T12:41:28.298Z,101457.88
2022-08-28T12:44:33.349Z,101457.91
2022-08-28T12:47:37.014Z,101462.47
2022-08-28T12:50:41.122Z,101457.34
2022-08-28T12:53:46.176Z,101446.91
2022-08-28T12:56:48.810Z,101450.13
2022-08-28T12:59:53.061Z,101445.28
2022-08-28T13:02:57.783Z,101452.03
2022-08-28T13:06:05.624Z,101442.75
2022-08-28T13:09:16.551Z,101443.31
2022-08-28T13:12:22.243Z,101439.47
2022-08-28T13:15:55.127Z,101434.09
2022-08-28T13:19:13.553Z,101430.94
2022-08-28T13:22:39.632Z,101434.25
2022-08-28T13:25:42.291Z,101438.00
2022-08-28T13:28:45.144Z,101438.47
2022-08-28T13:31:57.164Z,101438.56
2022-08-28T13:35:34.798Z,101435.44
2022-08-28T13:38:38.893Z,101448.03
2022-08-28T13:41:42.498Z,101441.78
2022-08-28T13:44:50.401Z,101446.25
2022-08-28T13:47:53.014Z,101448.09
2022-08-28T13:51:00.121Z,101438.56
2022-08-28T13:54:04.190Z,101444.00
2022-08-28T13:57:09.198Z,101448.25
2022-08-28T14:00:14.420Z,101443.84
2022-08-28T14:03:35.322Z,101443.47
2022-08-28T14:06:37.917Z,101451.19
2022-08-28T14:09:42.733Z,101448.13
2022-08-28T14:12:47.640Z,101451.44
2022-08-28T14:15:50.275Z,101457.56
2022-08-28T14:18:53.588Z,101452.78
2022-08-28T14:21:57.368Z,101446.53
2022-08-28T14:25:01.399Z,101443.34
2022-08-28T14:28:04.598Z,101444.91
2022-08-28T14:31:12.262Z,101446.91
2022-08-28T14:34:21.304Z,101439.00
2022-08-28T14:37:23.918Z,101437.66
2022-08-28T14:40:27.921Z,101437.03
2022-08-28T14:43:31.554Z,101441.81
2022-08-28T14:46:36.598Z,101433.00
2022-08-28T14:49:39.695Z,101444.28
2022-08-28T14:52:42.849Z,101436.66
2022-08-28T14:55:48.685Z,101434.22
2022-08-28T14:58:51.449Z,101437.19
2022-08-28T15:01:58.009Z,101448.00
2022-08-28T15:05:01.011Z,101438.16
2022-08-28T15:08:04.230Z,101434.69
2022-08-28T15:11:08.558Z,101441.19
2022-08-28T15:14:11.689Z,101433.97
2022-08-28T15:17:14.642Z,101441.31
2022-08-28T15:20:17.502Z,101447.69
2022-08-28T15:23:20.195Z,101440.38
2022-08-28T15:26:25.711Z,101445.41
2022-08-28T15:29:29.847Z,101445.91
2022-08-28T15:32:32.592Z,101436.31
2022-08-28T15:35:37.030Z,101447.63
2022-08-28T15:38:53.585Z,101450.59
2022-08-28T15:42:01.314Z,101449.19
2022-08-28T15:45:04.189Z,101445.31
2022-08-28T15:48:06.942Z,101444.53
2022-08-28T15:51:09.532Z,101435.88
2022-08-28T15:54:13.269Z,101448.38
2022-08-28T15:57:17.400Z,101443.63
2022-08-28T16:00:20.114Z,101451.75
2022-08-28T16:03:22.712Z,101447.38
2022-08-28T16:06:26.763Z,101445.03
2022-08-28T16:09:29.314Z,101443.94
2022-08-28T16:12:33.313Z,101452.22
2022-08-28T16:15:36.158Z,101457.22
2022-08-28T16:18:39.019Z,101454.19
2022-08-28T16:21:42.573Z,101452.22
2022-08-28T16:24:45.810Z,101455.75
2022-08-28T16:27:49.772Z,101468.41
2022-08-28T16:30:52.840Z,101463.75
2022-08-28T16:33:56.848Z,101458.78
2022-08-28T16:36:59.879Z,101458.84
2022-08-28T16:40:02.601Z,101466.50
2022-08-28T16:43:06.560Z,101465.34
2022-08-28T16:46:14.277Z,101462.00
2022-08-28T16:49:16.952Z,101468.75
2022-08-28T16:52:20.011Z,101469.88
2022-08-28T16:55:22.785Z,101470.56
2022-08-28T16:58:26.806Z,101468.34
2022-08-28T17:01:29.562Z,101466.22
2022-08-28T17:04:33.078Z,101468.63
2022-08-28T17:07:35.972Z,101471.44
2022-08-28T17:10:38.730Z,101476.41
2022-08-28T17:13:42.730Z,101470.63
2022-08-28T17:16:45.907Z,101475.13
2022-08-28T17:19:48.512Z,101476.38
2022-08-28T17:22:50.161Z,101478.22
2022-08-28T17:25:52.742Z,101480.47
2022-08-28T17:28:56.689Z,101478.66
2022-08-28T17:31:59.354Z,101469.47
2022-08-28T17:35:02.429Z,101472.50
2022-08-28T17:38:05.068Z,101481.47
2022-08-28T17:41:07.667Z,101484.47
2022-08-28T17:44:12.085Z,101482.63
2022-08-28T17:47:14.690Z,101488.16
2022-08-28T17:50:17.464Z,101487.06
2022-08-28T17:53:23.498Z,101483.38
2022-08-28T17:56:35.757Z,101486.84
2022-08-28T17:59:40.149Z,101491.13
2022-08-28T18:02:43.013Z,101488.56
2022-08-28T18:05:46.202Z,101487.28
2022-08-28T18:08:50.933Z,101495.03
2022-08-28T18:11:53.906Z,101495.75
2022-08-28T18:14:57.994Z,101493.63
2022-08-28T18:18:00.722Z,101497.94
2022-08-28T18:21:03.329Z,101501.03
2022-08-28T18:24:06.749Z,101491.47
2022-08-28T18:27:09.356Z,101496.19
2022-08-28T18:30:13.960Z,101498.03
2022-08-28T18:33:18.609Z,101499.00
2022-08-28T18:36:22.992Z,101508.31
2022-08-28T18:39:29.778Z,101504.00
2022-08-28T18:42:32.674Z,101508.16
2022-08-28T18:45:36.775Z,101504.88
2022-08-28T18:48:39.380Z,101514.78
2022-08-28T18:51:42.940Z,101513.47
2022-08-28T18:54:45.694Z,101507.53
2022-08-28T18:57:49.512Z,101519.00
2022-08-28T19:00:55.910Z,101519.56
2022-08-28T19:03:58.523Z,101524.06
2022-08-28T19:07:01.122Z,101518.25
2022-08-28T19:10:05.560Z,101522.53
2022-08-28T19:13:08.699Z,101525.88
2022-08-28T19:16:16.989Z,101527.19
2022-08-28T19:19:19.686Z,101526.66
2022-08-28T19:22:23.324Z,101530.72
2022-08-28T19:25:29.254Z,101536.28
2022-08-28T19:28:32.011Z,101530.06
2022-08-28T19:31:35.949Z,101539.03
2022-08-28T19:34:38.604Z,101540.88
2022-08-28T19:37:42.748Z,101535.16
2022-08-28T19:40:45.809Z,101527.75
2022-08-28T19:43:48.504Z,101529.44
2022-08-28T19:46:52.429Z,101528.91
2022-08-28T19:49:55.554Z,101530.44
2022-08-28T19:52:59.987Z,101528.91
2022-08-28T19:56:02.741Z,101528.50
2022-08-28T19:59:07.523Z,101528.09
2022-08-28T20:02:11.531Z,101527.41
2022-08-28T20:05:14.487Z,101529.88
2022-08-28T20:08:17.841Z,101535.97
2022-08-28T20:11:24.894Z,101537.91
2022-08-28T20:14:27.803Z,101532.81
2022-08-28T20:17:31.805Z,101540.69
2022-08-28T20:20:34.462Z,101541.69
2022-08-28T20:23:37.045Z,101536.88
2022-08-28T20:26:39.776Z,101534.19
2022-08-28T20:29:42.486Z,101532.88
2022-08-28T20:32:46.462Z,101527.72
2022-08-28T20:35:49.094Z,101534.06
2022-08-28T20:38:51.718Z,101535.41
2022-08-28T20:41:54.344Z,101526.09
2022-08-28T20:44:57.581Z,101528.53
2022-08-28T20:48:01.527Z,101531.34
2022-08-28T20:51:04.483Z,101533.75
2022-08-28T20:54:07.130Z,101535.97
2022-08-28T20:57:12.959Z,101528.41
2022-08-28T21:00:15.856Z,101529.72
2022-08-28T21:03:20.110Z,101530.34
2022-08-28T21:06:29.759Z,101537.56
2022-08-28T21:09:33.409Z,101535.56
2022-08-28T21:12:54.967Z,101535.78
2022-08-28T21:15:57.554Z,101529.75
2022-08-28T21:19:16.966Z,101534.91
2022-08-28T21:22:20.019Z,101535.47
2022-08-28T21:25:25.032Z,101530.13
2022-08-28T21:28:27.732Z,101532.66
2022-08-28T21:31:30.348Z,101538.97
2022-08-28T21:34:34.277Z,101542.97
2022-08-28T21:37:36.881Z,101545.41
2022-08-28T21:40:40.943Z,101542.44
2022-08-28T21:43:45.054Z,101539.16
2022-08-28T21:46:47.643Z,101543.22
2022-08-28T21:49:52.509Z,101550.59
2022-08-28T21:52:55.115Z,101554.72
2022-08-28T21:55:58.089Z,101554.50
2022-08-28T21:59:01.101Z,101558.63
2022-08-28T22:02:04.362Z,101561.19
2022-08-28T22:05:08.967Z,101563.13
2022-08-28T22:08:11.872Z,101562.78
2022-08-28T22:11:15.632Z,101562.34
2022-08-28T22:14:19.577Z,101567.38
2022-08-28T22:17:22.545Z,101556.75
2022-08-28T22:20:26.679Z,101568.75
2022-08-28T22:23:34.868Z,101569.50
2022-08-28T22:26:37.822Z,101568.66
2022-08-28T22:29:40.544Z,101568.25
2022-08-28T22:32:43.162Z,101564.63
2022-08-28T22:35:49.389Z,101562.16
2022-08-28T22:38:53.225Z,101567.84
2022-08-28T22:41:56.085Z,101566.13
2022-08-28T22:44:59.538Z,101564.66
2022-08-28T22:48:02.189Z,101578.22
2022-08-28T22:51:08.684Z,101563.19
2022-08-28T22:54:11.308Z,101566.75
2022-08-28T22:57:13.875Z,101571.28
2022-08-28T23:00:21.603Z,101570.25
2022-08-28T23:03:24.346Z,101565.34
2022-08-28T23:06:28.491Z,101561.56
2022-08-28T23:09:31.170Z,101568.53
2022-08-28T23:12:36.669Z,101558.88
2022-08-28T23:15:39.374Z,101552.59
2022-08-28T23:19:06.419Z,101546.97
2022-08-28T23:22:06.652Z,101551.47
2022-08-28T23:25:13.830Z,101537.78
2022-08-28T23:28:16.663Z,101535.16
2022-08-28T23:31:19.573Z,101539.22
2022-08-28T23:34:22.855Z,101540.41
2022-08-28T23:37:26.908Z,101541.84
2022-08-28T23:40:30.391Z,101533.59
2022-08-28T23:43:33.496Z,101539.28
2022-08-28T23:46:36.462Z,101533.50
2022-08-28T23:49:42.798Z,101527.13
2022-08-28T23:52:47.192Z,101520.44
2022-08-28T23:55:49.963Z,101520.59
2022-08-28T23:58:54.202Z,101517.03
